Time;durP1;ratioP1;P1;durP2;ratioP2;P2;SDS_P1;SDS_P2;PMS_P1;PMS_P2;Temp;Humidity;BMP_temperature;BMP_pressure;BME280_temperature;BME280_humidity;BME280_pressure;Samples;Min_cycle;Max_cycle;Signal;HPM_P1;HPM_P2
2023/04/29 00:00:07;;;;;;;16.13;12.10;;;9.50;99.90;;;;;;4824439;29;20232;-56
2023/04/29 00:02:41;;;;;;;13.63;11.20;;;9.50;99.90;;;;;;4824016;29;20237;-56
2023/04/29 00:05:10;;;;;;;14.63;11.80;;;9.40;99.90;;;;;;4824253;29;20242;-56
2023/04/29 00:07:40;;;;;;;15.50;12.03;;;9.40;99.90;;;;;;4824352;29;20244;-57
2023/04/29 00:10:08;;;;;;;14.20;12.20;;;9.40;99.90;;;;;;4824552;29;20729;-56
2023/04/29 00:12:36;;;;;;;15.30;11.83;;;9.40;99.90;;;;;;4824408;29;20248;-56
2023/04/29 00:15:05;;;;;;;13.80;11.93;;;9.30;99.90;;;;;;4824462;29;20591;-56
2023/04/29 00:17:33;;;;;;;13.27;11.20;;;9.30;99.90;;;;;;4823867;29;20324;-56
2023/04/29 00:20:02;;;;;;;13.07;11.77;;;9.40;99.90;;;;;;4835516;29;20264;-57
2023/04/29 00:22:30;;;;;;;14.87;12.60;;;9.40;99.90;;;;;;4824290;29;20243;-56
2023/04/29 00:24:59;;;;;;;14.63;12.20;;;9.30;99.90;;;;;;4824048;29;20241;-56
2023/04/29 00:27:27;;;;;;;13.07;11.70;;;9.30;99.90;;;;;;4824090;29;20319;-56
2023/04/29 00:29:56;;;;;;;13.37;11.83;;;9.30;99.90;;;;;;4824035;29;20252;-57
2023/04/29 00:32:24;;;;;;;15.37;11.83;;;9.30;99.90;;;;;;4823556;29;20797;-54
2023/04/29 00:34:52;;;;;;;15.27;12.47;;;9.30;99.90;;;;;;4822775;29;20287;-56
2023/04/29 00:37:20;;;;;;;14.27;12.20;;;9.30;99.90;;;;;;4823977;29;20721;-57
2023/04/29 00:39:49;;;;;;;15.17;11.80;;;9.30;99.90;;;;;;4823829;29;20594;-56
2023/04/29 00:42:18;;;;;;;16.47;11.80;;;9.20;99.90;;;;;;4823929;29;20229;-56
2023/04/29 00:44:46;;;;;;;15.27;12.43;;;9.20;99.90;;;;;;4822453;29;20244;-56
2023/04/29 00:47:15;;;;;;;14.30;11.53;;;9.30;99.90;;;;;;4827048;29;20736;-56
2023/04/29 00:49:43;;;;;;;14.90;12.10;;;9.30;99.90;;;;;;4837543;29;20721;-56
2023/04/29 00:52:13;;;;;;;13.93;11.63;;;9.20;99.90;;;;;;4823971;29;20733;-56
2023/04/29 00:54:41;;;;;;;13.63;12.23;;;9.20;99.90;;;;;;4823573;29;20712;-57
2023/04/29 00:57:09;;;;;;;14.83;12.20;;;9.20;99.90;;;;;;4829158;29;20241;-56
2023/04/29 00:59:39;;;;;;;13.83;11.70;;;9.20;99.90;;;;;;4823924;29;20246;-56
2023/04/29 01:02:08;;;;;;;15.20;12.40;;;9.20;99.90;;;;;;4825499;29;20325;-56
2023/04/29 01:04:36;;;;;;;15.03;11.53;;;9.20;99.90;;;;;;4833031;29;20285;-56
2023/04/29 01:07:12;;;;;;;16.33;12.23;;;9.20;99.90;;;;;;4829500;29;20323;-56
2023/04/29 01:09:59;;;;;;;14.47;11.23;;;9.20;99.90;;;;;;4844228;29;20235;-56
2023/04/29 01:12:36;;;;;;;14.83;12.47;;;9.20;99.90;;;;;;4845599;29;20629;-56
2023/04/29 01:15:12;;;;;;;14.33;11.63;;;9.20;99.90;;;;;;4844189;29;20237;-56
2023/04/29 01:17:44;;;;;;;14.87;12.07;;;9.20;99.90;;;;;;4840696;29;20240;-56
2023/04/29 01:20:13;;;;;;;15.30;12.20;;;9.20;99.90;;;;;;4832844;29;20233;-56
2023/04/29 01:22:42;;;;;;;14.10;12.40;;;9.20;99.90;;;;;;4825414;29;20229;-56
2023/04/29 01:25:11;;;;;;;15.27;11.97;;;9.10;99.90;;;;;;4826696;29;20238;-56
2023/04/29 01:28:13;;;;;;;16.30;12.03;;;9.10;99.90;;;;;;4822507;29;20619;-56
2023/04/29 01:30:47;;;;;;;14.47;11.60;;;9.10;99.90;;;;;;4807024;29;20666;-56
2023/04/29 01:33:21;;;;;;;16.07;12.03;;;9.10;99.90;;;;;;4808986;29;20228;-56
2023/04/29 01:36:05;;;;;;;13.03;11.67;;;9.10;99.90;;;;;;4807268;29;20657;-56
2023/04/29 01:38:39;;;;;;;13.50;11.07;;;9.10;99.90;;;;;;4807219;29;20235;-56
2023/04/29 01:41:15;;;;;;;12.80;11.37;;;9.10;99.90;;;;;;4807304;29;20252;-56
2023/04/29 01:43:50;;;;;;;14.20;10.63;;;9.00;99.90;;;;;;4809857;29;20237;-56
2023/04/29 01:46:21;;;;;;;14.17;11.50;;;9.10;99.90;;;;;;4825183;29;20241;-56
2023/04/29 01:48:53;;;;;;;12.37;11.07;;;9.10;99.90;;;;;;4842152;29;20266;-56
2023/04/29 01:51:22;;;;;;;14.80;11.47;;;9.10;99.90;;;;;;4826800;29;20233;-56
2023/04/29 01:53:50;;;;;;;15.33;10.00;;;9.00;99.90;;;;;;4827643;29;20682;-56
2023/04/29 01:56:20;;;;;;;14.77;11.27;;;9.10;99.90;;;;;;4826292;29;20233;-56
2023/04/29 01:59:08;;;;;;;14.43;10.63;;;9.10;99.90;;;;;;4825287;29;20246;-56
2023/04/29 02:01:51;;;;;;;12.90;10.40;;;9.00;99.90;;;;;;4824657;29;20268;-56
2023/04/29 02:04:20;;;;;;;13.23;10.30;;;9.00;99.90;;;;;;4824982;29;20737;-56
2023/04/29 02:06:48;;;;;;;13.77;11.13;;;9.00;99.90;;;;;;4824821;29;20378;-56
2023/04/29 02:09:18;;;;;;;13.20;10.20;;;9.00;99.90;;;;;;4824870;29;20297;-56
2023/04/29 02:11:54;;;;;;;12.47;11.07;;;8.90;99.90;;;;;;4824230;29;20232;-57
2023/04/29 02:14:22;;;;;;;13.27;10.90;;;9.00;99.90;;;;;;4824896;29;20249;-56
2023/04/29 02:16:51;;;;;;;13.30;10.53;;;9.00;99.90;;;;;;4826362;29;20739;-57
2023/04/29 02:19:19;;;;;;;13.90;10.50;;;9.00;99.90;;;;;;4841789;29;20630;-55
2023/04/29 02:21:47;;;;;;;13.83;10.90;;;8.90;99.90;;;;;;4825593;29;20300;-56
2023/04/29 02:24:15;;;;;;;14.73;11.23;;;8.90;99.90;;;;;;4824897;29;20312;-56
2023/04/29 02:26:43;;;;;;;13.03;10.67;;;8.90;99.90;;;;;;4825687;29;20265;-56
2023/04/29 02:29:13;;;;;;;12.77;11.13;;;8.90;99.90;;;;;;4824533;29;20245;-56
2023/04/29 02:31:43;;;;;;;13.80;11.13;;;8.80;99.90;;;;;;4824018;29;20247;-56
2023/04/29 02:34:11;;;;;;;12.37;11.03;;;8.80;99.90;;;;;;4824510;29;20288;-56
2023/04/29 02:36:39;;;;;;;13.90;11.53;;;8.90;99.90;;;;;;4824407;29;20629;-56
2023/04/29 02:39:07;;;;;;;13.37;10.83;;;8.90;99.90;;;;;;4824502;29;20237;-56
2023/04/29 02:41:35;;;;;;;12.67;9.90;;;8.90;99.90;;;;;;4825504;29;20694;-56
2023/04/29 02:44:03;;;;;;;12.47;10.77;;;8.90;99.90;;;;;;4824317;29;20245;-56
2023/04/29 02:46:34;;;;;;;13.47;10.80;;;8.90;99.90;;;;;;4824136;29;20747;-56
2023/04/29 02:49:03;;;;;;;13.17;10.63;;;8.90;99.90;;;;;;4828824;29;20232;-56
2023/04/29 02:51:32;;;;;;;12.97;11.53;;;8.90;99.90;;;;;;4824371;29;20272;-55
2023/04/29 02:54:00;;;;;;;13.97;10.83;;;8.90;99.90;;;;;;4824190;29;20324;-55
2023/04/29 02:56:28;;;;;;;14.67;10.77;;;8.90;99.90;;;;;;4835876;29;20233;-56
2023/04/29 02:58:56;;;;;;;16.30;11.60;;;8.80;99.90;;;;;;4825381;29;20229;-56
2023/04/29 03:01:24;;;;;;;14.43;11.17;;;8.80;99.90;;;;;;4824910;29;20250;-56
2023/04/29 03:03:54;;;;;;;14.33;11.10;;;8.80;99.90;;;;;;4824160;29;20328;-56
2023/04/29 03:06:22;;;;;;;14.40;11.23;;;8.80;99.90;;;;;;4823923;29;20282;-56
2023/04/29 03:08:51;;;;;;;12.60;11.23;;;8.70;99.90;;;;;;4824064;29;20717;-56
2023/04/29 03:11:19;;;;;;;14.17;12.40;;;8.80;99.90;;;;;;4826726;29;20307;-55
2023/04/29 03:13:47;;;;;;;12.60;11.27;;;8.70;99.90;;;;;;4842274;29;20262;-56
2023/04/29 03:16:15;;;;;;;14.53;11.77;;;8.70;99.90;;;;;;4841150;29;20237;-56
2023/04/29 03:18:44;;;;;;;16.07;11.47;;;8.80;99.90;;;;;;4839341;29;20227;-56
2023/04/29 03:21:14;;;;;;;15.77;12.27;;;8.80;99.90;;;;;;4826811;29;20724;-56
2023/04/29 03:23:42;;;;;;;16.77;12.53;;;8.70;99.90;;;;;;4822820;29;20320;-56
2023/04/29 03:26:13;;;;;;;16.90;12.00;;;8.70;99.90;;;;;;4837413;29;20681;-55
2023/04/29 03:28:41;;;;;;;13.60;11.90;;;8.70;99.90;;;;;;4823170;29;20662;-56
2023/04/29 03:31:10;;;;;;;13.70;12.23;;;8.70;99.90;;;;;;4823124;29;20244;-56
2023/04/29 03:33:39;;;;;;;14.33;11.97;;;8.70;99.90;;;;;;4823330;29;20656;-55
2023/04/29 03:36:08;;;;;;;15.60;13.07;;;8.70;99.90;;;;;;4835889;29;20244;-56
2023/04/29 03:38:41;;;;;;;13.37;11.97;;;8.70;99.90;;;;;;4841506;29;20322;-56
2023/04/29 03:41:09;;;;;;;15.20;12.70;;;8.70;99.90;;;;;;4841685;29;20236;-56
2023/04/29 03:43:37;;;;;;;14.93;13.37;;;8.70;99.90;;;;;;4839639;29;20241;-56
2023/04/29 03:46:06;;;;;;;14.63;13.03;;;8.60;99.90;;;;;;4825772;29;20248;-56
2023/04/29 03:48:34;;;;;;;14.43;12.63;;;8.60;99.90;;;;;;4837612;29;20232;-56
2023/04/29 03:51:02;;;;;;;16.80;13.17;;;8.60;99.90;;;;;;4828931;29;20617;-56
2023/04/29 03:53:31;;;;;;;15.47;13.87;;;8.60;99.90;;;;;;4824381;29;20310;-56
2023/04/29 03:56:01;;;;;;;15.47;12.87;;;8.60;99.90;;;;;;4838427;29;20795;-56
2023/04/29 03:58:29;;;;;;;17.90;14.03;;;8.70;99.90;;;;;;4824345;29;20694;-56
2023/04/29 04:00:58;;;;;;;18.73;14.67;;;8.90;99.90;;;;;;4822875;29;20787;-56
2023/04/29 04:03:33;;;;;;;17.43;15.20;;;8.80;99.90;;;;;;4823124;29;20282;-56
2023/04/29 04:06:02;;;;;;;18.00;14.80;;;8.80;99.90;;;;;;4823177;29;20238;-57
2023/04/29 04:08:30;;;;;;;18.40;14.63;;;8.70;99.90;;;;;;4822887;29;20286;-56
2023/04/29 04:11:13;;;;;;;16.90;15.10;;;8.70;99.90;;;;;;4823103;29;20594;-56
2023/04/29 04:13:45;;;;;;;18.13;15.50;;;8.70;99.90;;;;;;4822922;29;20705;-56
2023/04/29 04:16:13;;;;;;;18.07;15.37;;;8.70;99.90;;;;;;4823119;29;20292;-56
2023/04/29 04:18:41;;;;;;;18.47;15.37;;;8.60;99.90;;;;;;4831806;29;20228;-56
2023/04/29 04:21:10;;;;;;;19.13;15.47;;;8.60;99.90;;;;;;4833641;29;20315;-56
2023/04/29 04:23:42;;;;;;;18.87;15.37;;;8.70;99.90;;;;;;4822725;29;20233;-56
2023/04/29 04:26:15;;;;;;;18.63;15.37;;;8.70;99.90;;;;;;4836423;29;20353;-56
2023/04/29 04:29:00;;;;;;;18.03;14.57;;;8.70;99.90;;;;;;4822774;29;20328;-56
2023/04/29 04:31:33;;;;;;;17.53;15.27;;;8.70;99.90;;;;;;4822409;29;20244;-56
2023/04/29 04:34:02;;;;;;;20.20;15.63;;;8.70;99.90;;;;;;4822832;29;20324;-55
2023/04/29 04:36:32;;;;;;;17.87;15.47;;;8.70;99.90;;;;;;4822454;29;20251;-56
2023/04/29 04:39:00;;;;;;;19.30;15.47;;;8.70;99.90;;;;;;4822676;29;20233;-55
2023/04/29 04:41:30;;;;;;;21.80;16.63;;;8.70;99.90;;;;;;4822555;29;20760;-56
2023/04/29 04:43:59;;;;;;;18.00;15.70;;;8.70;99.90;;;;;;4818590;29;20230;-56
2023/04/29 04:46:41;;;;;;;19.87;15.77;;;8.80;99.90;;;;;;4808661;29;20604;-56
2023/04/29 04:49:15;;;;;;;18.17;15.40;;;8.90;99.90;;;;;;4832721;29;20230;-56
2023/04/29 04:51:50;;;;;;;17.70;15.77;;;8.90;99.90;;;;;;4822463;29;20320;-56
2023/04/29 04:54:18;;;;;;;21.80;15.23;;;8.90;99.90;;;;;;4823838;29;20237;-56
2023/04/29 04:56:52;;;;;;;17.77;15.83;;;8.90;99.90;;;;;;4831573;29;20328;-56
2023/04/29 04:59:20;;;;;;;19.70;15.23;;;9.00;99.90;;;;;;4822565;29;20873;-56
2023/04/29 05:01:48;;;;;;;19.90;15.60;;;9.00;99.90;;;;;;4822226;29;20240;-56
2023/04/29 05:04:16;;;;;;;17.33;15.33;;;9.10;99.90;;;;;;4822525;29;20236;-56
2023/04/29 05:06:45;;;;;;;19.27;15.33;;;9.10;99.90;;;;;;4822530;29;20248;-57
2023/04/29 05:09:13;;;;;;;19.37;15.63;;;9.20;99.90;;;;;;4825955;29;20281;-56
2023/04/29 05:11:41;;;;;;;18.00;14.80;;;9.20;99.90;;;;;;4840291;29;20259;-56
2023/04/29 05:14:14;;;;;;;19.10;14.80;;;9.20;99.90;;;;;;4840667;29;20793;-55
2023/04/29 05:16:44;;;;;;;16.53;14.83;;;9.30;99.90;;;;;;4836527;29;20575;-56
2023/04/29 05:19:12;;;;;;;17.90;15.00;;;9.30;99.90;;;;;;4829716;29;20225;-57
2023/04/29 05:21:41;;;;;;;20.77;15.37;;;9.40;99.90;;;;;;4821908;29;20232;-56
2023/04/29 05:24:11;;;;;;;18.90;16.03;;;9.40;99.90;;;;;;4822578;29;20268;-56
2023/04/29 05:26:39;;;;;;;18.20;16.03;;;9.50;99.90;;;;;;4823293;29;20575;-57
2023/04/29 05:29:07;;;;;;;18.30;15.03;;;9.60;99.90;;;;;;4821817;29;20598;-56
2023/04/29 05:31:46;;;;;;;20.40;14.73;;;9.60;99.90;;;;;;4819440;29;20306;-56
2023/04/29 05:34:15;;;;;;;18.50;15.03;;;9.60;99.90;;;;;;4822128;29;20724;-56
2023/04/29 05:36:43;;;;;;;19.40;15.13;;;9.50;99.90;;;;;;4822054;29;20260;-56
2023/04/29 05:39:11;;;;;;;16.80;14.10;;;9.50;99.90;;;;;;4822011;29;20256;-56
2023/04/29 05:41:39;;;;;;;17.50;14.83;;;9.50;99.90;;;;;;4829538;29;20233;-56
2023/04/29 05:44:15;;;;;;;21.10;14.47;;;9.60;99.90;;;;;;4833754;29;20763;-57
2023/04/29 05:46:43;;;;;;;19.53;14.37;;;9.50;99.90;;;;;;4825261;29;20226;-56
2023/04/29 05:49:12;;;;;;;16.70;14.20;;;9.60;99.90;;;;;;4835696;29;20300;-56
2023/04/29 05:51:41;;;;;;;19.37;14.43;;;9.60;99.90;;;;;;4824953;29;20240;-57
2023/04/29 05:54:10;;;;;;;18.00;13.83;;;9.70;99.90;;;;;;4825170;29;20264;-57
2023/04/29 05:56:38;;;;;;;16.50;14.07;;;9.80;99.90;;;;;;4821832;29;20598;-57
2023/04/29 05:59:06;;;;;;;16.97;13.37;;;9.90;99.90;;;;;;4824687;29;20594;-57
2023/04/29 06:01:34;;;;;;;18.87;13.53;;;10.00;99.90;;;;;;4821941;29;20241;-56
2023/04/29 06:04:02;;;;;;;17.47;12.90;;;10.20;99.90;;;;;;4824670;29;20309;-57
2023/04/29 06:06:51;;;;;;;16.20;13.63;;;10.30;99.90;;;;;;4825798;29;20240;-57
2023/04/29 06:09:42;;;;;;;15.93;13.40;;;10.40;99.90;;;;;;4824400;29;20662;-56
2023/04/29 06:12:11;;;;;;;16.90;12.73;;;10.50;99.90;;;;;;4825588;29;20229;-57
2023/04/29 06:14:42;;;;;;;16.30;13.07;;;10.60;99.90;;;;;;4824022;29;20232;-56
2023/04/29 06:17:11;;;;;;;16.70;12.67;;;10.80;99.90;;;;;;4822845;29;20660;-57
2023/04/29 06:19:39;;;;;;;18.90;13.37;;;11.00;99.90;;;;;;4825885;29;20229;-56
2023/04/29 06:22:10;;;;;;;16.83;12.93;;;11.10;99.90;;;;;;4824249;29;20282;-56
2023/04/29 06:24:44;;;;;;;15.73;12.30;;;11.20;99.90;;;;;;4824204;29;20290;-57
2023/04/29 06:27:15;;;;;;;18.70;12.63;;;11.30;99.90;;;;;;4821470;29;20708;-57
2023/04/29 06:29:43;;;;;;;15.73;13.17;;;11.30;99.90;;;;;;4825245;29;20238;-57
2023/04/29 06:32:12;;;;;;;15.97;12.10;;;11.20;99.90;;;;;;4821496;29;20762;-57
2023/04/29 06:34:41;;;;;;;17.10;12.53;;;11.20;99.90;;;;;;4823784;29;20231;-56
2023/04/29 06:37:39;;;;;;;15.83;12.37;;;11.10;99.90;;;;;;4818941;29;20238;-57
2023/04/29 06:40:34;;;;;;;16.30;11.83;;;11.20;99.90;;;;;;4824032;29;20230;-57
2023/04/29 06:43:07;;;;;;;17.20;13.13;;;11.30;99.90;;;;;;4821945;29;20257;-56
2023/04/29 06:46:14;;;;;;;18.57;13.23;;;11.30;99.90;;;;;;4800067;29;20266;-56
2023/04/29 06:49:01;;;;;;;17.00;13.20;;;11.30;99.90;;;;;;4816151;29;20243;-55
2023/04/29 06:51:31;;;;;;;20.77;14.17;;;11.20;99.90;;;;;;4814233;29;20241;-57
2023/04/29 06:54:01;;;;;;;18.13;14.33;;;11.10;99.90;;;;;;4823819;29;20272;-56
2023/04/29 06:56:29;;;;;;;18.60;15.17;;;11.10;99.90;;;;;;4823702;29;20239;-57
2023/04/29 06:58:57;;;;;;;21.37;15.30;;;11.10;99.90;;;;;;4823895;29;20246;-57
2023/04/29 07:01:25;;;;;;;22.50;15.90;;;11.00;99.90;;;;;;4823238;29;20244;-57
2023/04/29 07:03:53;;;;;;;21.87;15.40;;;11.00;99.90;;;;;;4822856;29;20232;-57
2023/04/29 07:06:22;;;;;;;18.73;14.40;;;11.00;99.90;;;;;;4824146;29;20243;-57
2023/04/29 07:08:52;;;;;;;22.73;14.20;;;11.00;99.90;;;;;;4828236;29;20239;-57
2023/04/29 07:11:25;;;;;;;18.23;14.20;;;11.00;99.90;;;;;;4831500;29;20234;-57
2023/04/29 07:13:53;;;;;;;16.57;13.70;;;11.10;99.90;;;;;;4838349;29;20243;-57
2023/04/29 07:16:25;;;;;;;18.20;13.40;;;11.20;99.90;;;;;;4841725;29;20245;-56
2023/04/29 07:18:53;;;;;;;18.53;13.07;;;11.20;99.90;;;;;;4831859;29;20267;-57
2023/04/29 07:21:21;;;;;;;16.97;12.57;;;11.30;99.90;;;;;;4823573;29;20236;-56
2023/04/29 07:23:49;;;;;;;18.33;12.73;;;11.30;99.90;;;;;;4824919;29;20313;-57
2023/04/29 07:26:18;;;;;;;17.63;12.10;;;11.20;99.90;;;;;;4824955;29;20259;-56
2023/04/29 07:28:48;;;;;;;15.60;11.80;;;11.10;99.90;;;;;;4823833;29;20748;-57
2023/04/29 07:31:16;;;;;;;13.57;10.67;;;11.20;99.90;;;;;;4822835;29;20242;-57
2023/04/29 07:33:45;;;;;;;14.27;10.30;;;11.20;99.90;;;;;;4822225;29;20708;-56
2023/04/29 07:36:13;;;;;;;17.43;12.30;;;11.30;99.90;;;;;;4823054;29;20343;-57
2023/04/29 07:38:41;;;;;;;13.20;9.87;;;11.30;99.90;;;;;;4823103;29;20259;-56
2023/04/29 07:41:10;;;;;;;13.87;10.70;;;11.60;99.90;;;;;;4824562;29;20250;-57
2023/04/29 07:43:39;;;;;;;14.27;11.17;;;11.80;99.90;;;;;;4821329;29;20270;-57
2023/04/29 07:46:10;;;;;;;13.53;11.10;;;12.00;99.90;;;;;;4823254;29;20724;-57
2023/04/29 07:48:39;;;;;;;12.70;10.80;;;12.10;99.90;;;;;;4830512;29;20291;-56
2023/04/29 07:51:12;;;;;;;14.07;11.07;;;12.20;99.90;;;;;;4823335;29;20235;-56
2023/04/29 07:53:42;;;;;;;13.73;11.60;;;12.20;99.90;;;;;;4824029;29;20298;-57
2023/04/29 07:56:10;;;;;;;15.80;11.30;;;12.20;99.90;;;;;;4825212;29;20243;-57
2023/04/29 07:58:39;;;;;;;14.00;10.77;;;12.30;99.90;;;;;;4841274;29;20242;-57
2023/04/29 08:01:10;;;;;;;14.77;9.93;;;12.40;99.90;;;;;;4842326;29;20254;-57
2023/04/29 08:03:40;;;;;;;14.07;10.43;;;12.30;99.90;;;;;;4841214;29;20242;-57
2023/04/29 08:06:10;;;;;;;11.33;8.87;;;12.30;99.90;;;;;;4840507;29;20230;-57
2023/04/29 08:08:41;;;;;;;11.37;9.07;;;12.40;99.90;;;;;;4820038;29;20236;-57
2023/04/29 08:11:16;;;;;;;10.97;8.60;;;12.50;99.90;;;;;;4836388;29;20250;-57
2023/04/29 08:13:44;;;;;;;11.27;8.40;;;12.50;99.90;;;;;;4824314;29;20243;-57
2023/04/29 08:16:14;;;;;;;10.73;7.97;;;12.40;99.90;;;;;;4823110;29;20239;-57
2023/04/29 08:18:42;;;;;;;10.00;7.70;;;12.30;99.90;;;;;;4830796;29;20235;-57
2023/04/29 08:21:11;;;;;;;10.03;7.37;;;12.30;99.90;;;;;;4825949;29;20234;-57
2023/04/29 08:23:40;;;;;;;13.13;8.37;;;12.70;99.90;;;;;;4824210;29;20244;-56
2023/04/29 08:26:10;;;;;;;10.60;7.40;;;12.90;99.90;;;;;;4837285;29;20253;-57
2023/04/29 08:28:38;;;;;;;8.60;7.57;;;12.90;99.90;;;;;;4828822;29;20241;-57
2023/04/29 08:31:06;;;;;;;9.10;7.63;;;12.90;99.90;;;;;;4841678;29;20733;-57
2023/04/29 08:33:36;;;;;;;10.80;8.10;;;12.90;99.90;;;;;;4827062;29;20242;-55
2023/04/29 08:36:04;;;;;;;9.90;8.10;;;12.80;99.90;;;;;;4812759;29;20272;-57
2023/04/29 08:38:32;;;;;;;12.70;8.33;;;12.80;99.90;;;;;;4813740;29;20246;-57
2023/04/29 08:41:01;;;;;;;12.17;8.30;;;13.00;99.90;;;;;;4813281;29;20242;-57
2023/04/29 08:43:32;;;;;;;10.03;8.23;;;12.90;99.90;;;;;;4814928;29;20261;-56
2023/04/29 08:46:01;;;;;;;13.33;8.77;;;12.80;99.90;;;;;;4815462;29;20240;-57
2023/04/29 08:48:30;;;;;;;14.53;9.10;;;13.10;99.90;;;;;;4815759;29;20711;-57
2023/04/29 08:51:01;;;;;;;9.20;8.17;;;13.70;99.90;;;;;;4814863;29;20341;-57
2023/04/29 08:53:29;;;;;;;11.90;8.00;;;14.40;99.90;;;;;;4814240;29;20250;-57
2023/04/29 08:56:00;;;;;;;9.43;8.40;;;15.00;99.90;;;;;;4814174;29;21003;-57
2023/04/29 08:58:33;;;;;;;12.43;8.53;;;14.90;99.90;;;;;;4813570;29;20239;-58
2023/04/29 09:01:02;;;;;;;9.80;8.40;;;15.00;99.90;;;;;;4812435;29;20748;-55
2023/04/29 09:03:37;;;;;;;10.70;7.83;;;14.80;99.90;;;;;;4811904;29;20236;-57
2023/04/29 09:06:06;;;;;;;9.60;8.20;;;14.60;99.90;;;;;;4813233;29;20247;-57
2023/04/29 09:08:35;;;;;;;10.60;8.67;;;14.60;99.90;;;;;;4815907;29;20239;-57
2023/04/29 09:11:04;;;;;;;12.70;8.67;;;14.70;99.90;;;;;;4815555;29;20274;-56
2023/04/29 09:13:33;;;;;;;11.70;8.97;;;14.80;99.90;;;;;;4814628;29;20239;-57
2023/04/29 09:16:01;;;;;;;10.07;8.97;;;14.80;99.90;;;;;;4815066;29;20236;-56
2023/04/29 09:18:46;;;;;;;12.37;8.97;;;14.70;99.90;;;;;;4815648;29;20589;-57
2023/04/29 09:21:17;;;;;;;10.63;9.00;;;14.80;99.90;;;;;;4813071;29;20246;-57
2023/04/29 09:23:50;;;;;;;9.77;8.70;;;15.10;99.90;;;;;;4814873;29;20255;-56
2023/04/29 09:26:18;;;;;;;10.00;9.00;;;15.30;99.90;;;;;;4815872;29;20692;-58
2023/04/29 09:28:48;;;;;;;10.60;8.73;;;15.60;99.90;;;;;;4816021;29;20247;-58
2023/04/29 09:31:27;;;;;;;10.47;9.10;;;15.80;99.90;;;;;;4813739;29;20240;-57
2023/04/29 09:33:57;;;;;;;12.17;9.17;;;16.20;99.90;;;;;;4814634;29;20243;-57
2023/04/29 09:36:43;;;;;;;11.53;9.10;;;16.70;99.90;;;;;;4815579;29;20292;-57
2023/04/29 09:39:13;;;;;;;9.77;8.77;;;17.20;99.90;;;;;;4830561;29;20233;-59
2023/04/29 09:41:43;;;;;;;15.63;10.17;;;17.20;99.90;;;;;;4815979;29;20232;-59
2023/04/29 09:44:11;;;;;;;9.53;8.13;;;17.50;99.90;;;;;;4812961;29;20709;-58
2023/04/29 09:46:39;;;;;;;11.23;9.10;;;17.30;99.90;;;;;;4815543;29;20251;-58
2023/04/29 09:49:23;;;;;;;10.20;7.77;;;17.40;99.90;;;;;;4816047;29;20589;-57
2023/04/29 09:51:58;;;;;;;10.60;8.60;;;17.30;99.90;;;;;;4818706;29;20280;-58
2023/04/29 09:54:28;;;;;;;9.63;8.57;;;17.20;99.90;;;;;;4812651;29;20245;-58
2023/04/29 09:56:57;;;;;;;12.13;7.83;;;17.40;99.90;;;;;;4815795;29;20713;-57
2023/04/29 09:59:26;;;;;;;9.53;8.00;;;17.30;99.90;;;;;;4815573;29;20732;-57
2023/04/29 10:01:56;;;;;;;10.70;9.23;;;17.10;99.90;;;;;;4815156;29;20248;-57
2023/04/29 10:04:26;;;;;;;12.90;8.47;;;17.00;99.90;;;;;;4812991;29;20319;-58
2023/04/29 10:06:56;;;;;;;10.97;8.00;;;17.00;99.90;;;;;;4817057;29;20589;-57
2023/04/29 10:09:25;;;;;;;10.83;8.43;;;17.00;99.90;;;;;;4818064;29;20704;-58
2023/04/29 10:11:53;;;;;;;10.93;8.40;;;16.80;99.90;;;;;;4817289;29;20336;-58
2023/04/29 10:14:23;;;;;;;10.70;7.97;;;16.90;99.90;;;;;;4815809;29;20593;-58
2023/04/29 10:17:03;;;;;;;10.57;8.33;;;17.60;99.90;;;;;;4817075;29;20246;-59
2023/04/29 10:19:35;;;;;;;9.30;8.00;;;17.90;99.90;;;;;;4818314;29;20240;-57
2023/04/29 10:22:09;;;;;;;9.07;7.50;;;17.90;99.90;;;;;;4816885;29;20244;-57
2023/04/29 10:24:39;;;;;;;10.20;7.87;;;17.60;99.90;;;;;;4813850;29;20308;-57
2023/04/29 10:27:08;;;;;;;10.43;8.23;;;17.60;99.90;;;;;;4814529;29;20237;-57
2023/04/29 10:29:38;;;;;;;8.80;7.57;;;17.30;99.90;;;;;;4814809;29;20248;-57
2023/04/29 10:32:09;;;;;;;9.10;7.40;;;17.00;99.90;;;;;;4811824;29;20244;-58
2023/04/29 10:34:39;;;;;;;11.10;7.37;;;16.80;99.90;;;;;;4812759;29;20274;-57
2023/04/29 10:37:10;;;;;;;9.47;7.30;;;16.80;99.90;;;;;;4814678;29;20907;-57
2023/04/29 10:39:45;;;;;;;10.97;7.90;;;16.90;99.90;;;;;;4815202;29;20267;-59
2023/04/29 10:42:26;;;;;;;8.93;7.43;;;17.00;99.90;;;;;;4813664;29;20239;-56
2023/04/29 10:45:23;;;;;;;10.63;7.50;;;17.20;99.90;;;;;;4816487;29;20613;-56
2023/04/29 10:48:12;;;;;;;10.30;7.80;;;17.40;99.90;;;;;;4816740;29;20240;-58
2023/04/29 10:50:57;;;;;;;8.53;7.63;;;16.70;99.90;;;;;;4817390;29;20239;-58
2023/04/29 10:53:27;;;;;;;8.23;6.83;;;17.00;99.90;;;;;;4813974;29;20244;-56
2023/04/29 10:55:59;;;;;;;9.73;7.97;;;17.60;99.90;;;;;;4817893;29;20738;-58
2023/04/29 10:58:37;;;;;;;9.47;7.53;;;17.80;99.90;;;;;;4816455;29;20245;-56
2023/04/29 11:01:09;;;;;;;9.70;7.37;;;17.50;99.90;;;;;;4816074;29;20237;-58
2023/04/29 11:03:49;;;;;;;9.97;7.50;;;17.60;99.90;;;;;;4813581;29;20753;-57
2023/04/29 11:06:17;;;;;;;8.87;7.40;;;17.00;99.90;;;;;;4816359;29;20246;-58
2023/04/29 11:08:47;;;;;;;10.63;7.33;;;16.40;99.90;;;;;;4816567;29;20335;-58
2023/04/29 11:11:15;;;;;;;8.80;6.90;;;16.00;99.90;;;;;;4816647;29;20315;-58
2023/04/29 11:13:46;;;;;;;10.83;7.23;;;16.20;99.90;;;;;;4814096;29;20340;-54
2023/04/29 11:16:14;;;;;;;10.10;6.77;;;16.50;99.90;;;;;;4814977;29;20256;-58
2023/04/29 11:19:06;;;;;;;8.57;5.87;;;16.90;99.90;;;;;;4813196;29;20997;-58
2023/04/29 11:21:35;;;;;;;8.43;6.13;;;17.10;99.90;;;;;;4813151;29;20790;-58
2023/04/29 11:24:06;;;;;;;7.00;6.17;;;17.40;99.90;;;;;;4810163;29;20247;-57
2023/04/29 11:26:35;;;;;;;6.93;4.70;;;17.60;99.90;;;;;;4813190;29;21277;-56
2023/04/29 11:29:04;;;;;;;7.20;4.60;;;17.70;99.90;;;;;;4814673;29;21051;-59
2023/04/29 11:31:33;;;;;;;7.17;4.13;;;17.60;99.90;;;;;;4813848;29;20234;-59
2023/04/29 11:34:01;;;;;;;6.40;4.50;;;17.30;99.90;;;;;;4809217;29;20236;-57
2023/04/29 11:36:32;;;;;;;7.60;4.43;;;17.00;99.90;;;;;;4813573;29;20253;-59
2023/04/29 11:39:00;;;;;;;8.40;4.80;;;16.80;99.90;;;;;;4813211;29;20236;-58
2023/04/29 11:41:31;;;;;;;8.40;4.57;;;16.90;99.90;;;;;;4814256;29;20616;-58
2023/04/29 11:44:02;;;;;;;5.67;3.97;;;16.90;99.90;;;;;;4812885;29;20229;-58
2023/04/29 11:46:31;;;;;;;6.27;4.37;;;16.80;99.90;;;;;;4816640;29;20260;-58
2023/04/29 11:49:00;;;;;;;7.37;4.60;;;16.80;99.90;;;;;;4816110;29;20245;-57
2023/04/29 11:51:28;;;;;;;8.13;4.23;;;16.60;99.90;;;;;;4816667;29;20244;-58
2023/04/29 11:53:57;;;;;;;8.03;4.73;;;16.70;99.90;;;;;;4811416;29;20265;-58
2023/04/29 11:56:25;;;;;;;9.03;5.00;;;16.60;99.90;;;;;;4813036;29;20248;-58
2023/04/29 11:58:56;;;;;;;8.73;5.43;;;16.60;99.90;;;;;;4812770;29;20233;-56
2023/04/29 12:01:25;;;;;;;9.57;5.27;;;16.40;99.90;;;;;;4811794;29;20337;-56
2023/04/29 12:03:59;;;;;;;6.70;5.00;;;16.30;99.90;;;;;;4808837;29;20243;-55
2023/04/29 12:06:29;;;;;;;7.57;5.47;;;16.10;99.90;;;;;;4816097;29;20793;-58
2023/04/29 12:09:00;;;;;;;7.27;5.43;;;16.10;99.90;;;;;;4815807;29;20653;-58
2023/04/29 12:11:28;;;;;;;8.23;5.30;;;16.10;99.90;;;;;;4816204;29;20251;-57
2023/04/29 12:14:01;;;;;;;8.10;5.43;;;16.10;99.90;;;;;;4811523;29;20713;-58
2023/04/29 12:16:29;;;;;;;7.30;5.43;;;16.00;99.90;;;;;;4813408;29;20248;-58
2023/04/29 12:18:59;;;;;;;8.50;5.60;;;16.10;99.90;;;;;;4812562;29;20717;-57
2023/04/29 12:21:27;;;;;;;9.70;5.83;;;15.90;99.90;;;;;;4812569;29;20236;-58
2023/04/29 12:24:00;;;;;;;8.00;5.30;;;15.80;99.90;;;;;;4809237;29;20248;-58
2023/04/29 12:26:29;;;;;;;7.33;5.00;;;15.70;99.90;;;;;;4816399;29;20248;-58
2023/04/29 12:28:59;;;;;;;6.90;4.77;;;15.70;99.90;;;;;;4815436;29;20632;-59
2023/04/29 12:31:35;;;;;;;6.80;4.50;;;15.50;99.90;;;;;;4815400;29;20304;-57
2023/04/29 12:34:04;;;;;;;6.07;4.47;;;15.50;99.90;;;;;;4812704;29;20326;-56
2023/04/29 12:36:36;;;;;;;5.77;4.37;;;15.50;99.90;;;;;;4815901;29;20255;-57
2023/04/29 12:39:09;;;;;;;4.93;3.80;;;15.40;99.90;;;;;;4813058;29;20331;-57
2023/04/29 12:41:38;;;;;;;7.80;4.03;;;15.40;99.90;;;;;;4812905;29;20266;-56
2023/04/29 12:44:09;;;;;;;4.97;3.00;;;15.40;99.90;;;;;;4808911;29;20600;-57
2023/04/29 12:46:40;;;;;;;5.17;2.87;;;15.20;99.90;;;;;;4812802;29;20295;-58
2023/04/29 12:49:08;;;;;;;5.77;2.80;;;15.10;99.90;;;;;;4812517;29;20240;-56
2023/04/29 12:51:36;;;;;;;5.33;3.13;;;15.20;99.90;;;;;;4815677;29;20241;-56
2023/04/29 12:54:06;;;;;;;5.20;2.93;;;15.20;99.90;;;;;;4812552;29;20220;-58
2023/04/29 12:56:34;;;;;;;4.37;2.57;;;15.10;99.90;;;;;;4818833;29;20240;-58